Time;durP1;ratioP1;P1;durP2;ratioP2;P2;SDS_P1;SDS_P2;PMS_P1;PMS_P2;Temp;Humidity;BMP_temperature;BMP_pressure;BME280_temperature;BME280_humidity;BME280_pressure;Samples;Min_cycle;Max_cycle;Signal;HPM_P1;HPM_P2
2021/08/31 00:00:40;;;;;;;21.30;9.93;;;15.40;99.90;;;;;;4916017;28;38353;-79
2021/08/31 00:03:06;;;;;;;18.67;10.25;;;15.40;99.90;;;;;;4917138;28;42584;-80
2021/08/31 00:05:32;;;;;;;23.05;10.77;;;15.40;99.90;;;;;;4917096;28;38532;-77
2021/08/31 00:07:58;;;;;;;22.98;10.63;;;15.40;99.90;;;;;;4917371;28;39065;-77
2021/08/31 00:10:24;;;;;;;18.75;10.05;;;15.40;99.90;;;;;;4901815;29;38451;-76
2021/08/31 00:12:50;;;;;;;27.20;11.57;;;15.40;99.90;;;;;;4904017;29;39828;-78
2021/08/31 00:15:16;;;;;;;23.50;11.45;;;15.30;99.90;;;;;;4918512;28;38867;-77
2021/08/31 00:17:43;;;;;;;23.45;10.60;;;15.40;99.90;;;;;;4920944;28;39428;-78
2021/08/31 00:20:10;;;;;;;21.35;10.90;;;15.30;99.90;;;;;;4916211;28;37638;-77
2021/08/31 00:22:37;;;;;;;25.85;11.52;;;15.30;99.90;;;;;;4915200;28;37932;-77
2021/08/31 00:25:05;;;;;;;25.85;11.68;;;15.30;99.90;;;;;;4899635;28;38695;-76
2021/08/31 00:27:31;;;;;;;22.95;11.73;;;15.30;99.90;;;;;;4915712;28;47760;-78
2021/08/31 00:29:57;;;;;;;20.38;10.52;;;15.30;99.90;;;;;;4917984;28;37182;-78
2021/08/31 00:32:23;;;;;;;17.77;11.10;;;15.30;99.90;;;;;;4898887;28;37638;-78
2021/08/31 00:34:50;;;;;;;24.52;12.75;;;15.30;99.90;;;;;;4917619;28;39434;-78
2021/08/31 00:37:16;;;;;;;22.95;11.35;;;15.20;99.90;;;;;;4917103;28;39763;-78
2021/08/31 00:39:43;;;;;;;20.17;11.32;;;15.20;99.90;;;;;;4900225;28;36867;-77
2021/08/31 00:42:09;;;;;;;16.65;10.77;;;15.20;99.90;;;;;;4916471;28;37552;-78
2021/08/31 00:44:35;;;;;;;21.60;11.77;;;15.20;99.90;;;;;;4899999;29;38980;-78
2021/08/31 00:47:05;;;;;;;21.15;11.20;;;15.20;99.90;;;;;;4918608;28;37931;-79
2021/08/31 00:49:36;;;;;;;25.08;11.80;;;15.20;99.90;;;;;;4917399;28;48515;-78
2021/08/31 00:52:02;;;;;;;21.02;10.85;;;15.20;99.90;;;;;;4901136;28;39417;-77
2021/08/31 00:54:30;;;;;;;22.83;11.82;;;15.20;99.90;;;;;;4899486;28;38427;-78
2021/08/31 00:57:04;;;;;;;21.15;11.85;;;15.10;99.90;;;;;;4913859;28;37046;-79
2021/08/31 00:59:31;;;;;;;23.65;12.73;;;15.10;99.90;;;;;;4918841;28;48892;-79
2021/08/31 01:02:01;;;;;;;25.00;12.05;;;15.20;99.90;;;;;;4914150;28;40417;-78
2021/08/31 01:04:28;;;;;;;24.88;11.90;;;15.20;99.90;;;;;;4899993;29;47343;-79
2021/08/31 01:06:56;;;;;;;18.50;10.52;;;15.10;99.90;;;;;;4910894;28;38635;-79
2021/08/31 01:09:23;;;;;;;24.80;11.95;;;15.10;99.90;;;;;;4897587;28;38079;-79
2021/08/31 01:11:51;;;;;;;22.83;11.50;;;15.10;99.90;;;;;;4902529;29;40822;-78
2021/08/31 01:14:18;;;;;;;21.50;11.30;;;15.10;99.90;;;;;;4914359;28;39112;-78
2021/08/31 01:16:48;;;;;;;23.67;11.90;;;15.10;99.90;;;;;;4917226;28;38783;-79
2021/08/31 01:19:22;;;;;;;21.23;12.13;;;15.10;99.90;;;;;;4919011;28;38463;-78
2021/08/31 01:21:48;;;;;;;17.83;10.35;;;15.10;99.90;;;;;;4903138;29;40619;-78
2021/08/31 01:24:14;;;;;;;25.25;13.25;;;15.10;99.90;;;;;;4918196;28;38370;-78
2021/08/31 01:26:42;;;;;;;24.17;12.27;;;15.00;99.90;;;;;;4928520;28;38488;-79
2021/08/31 01:29:08;;;;;;;25.13;12.48;;;15.10;99.90;;;;;;4915726;28;37980;-79
2021/08/31 01:31:34;;;;;;;20.88;12.55;;;15.00;99.90;;;;;;4918454;28;40348;-79
2021/08/31 01:34:00;;;;;;;21.10;11.80;;;15.10;99.90;;;;;;4919292;28;38733;-79
2021/08/31 01:36:26;;;;;;;20.60;11.38;;;15.00;99.90;;;;;;4917659;28;46108;-79
2021/08/31 01:38:57;;;;;;;19.75;12.25;;;15.00;99.90;;;;;;4916591;28;38270;-78
2021/08/31 01:41:25;;;;;;;18.25;11.52;;;15.10;99.90;;;;;;4921043;28;38871;-78
2021/08/31 01:43:51;;;;;;;21.42;11.88;;;15.00;99.90;;;;;;4922091;28;38168;-79
2021/08/31 01:46:18;;;;;;;23.80;12.50;;;15.00;99.90;;;;;;4919532;28;39074;-79
2021/08/31 01:48:44;;;;;;;30.33;14.60;;;15.00;99.90;;;;;;4921946;28;38660;-78
2021/08/31 01:51:10;;;;;;;21.05;11.48;;;15.10;99.90;;;;;;4917633;28;37741;-79
2021/08/31 01:53:37;;;;;;;23.17;11.75;;;15.10;99.90;;;;;;4901200;28;37738;-79
2021/08/31 01:56:04;;;;;;;21.77;11.85;;;15.10;99.90;;;;;;4917875;28;36893;-78
2021/08/31 01:58:30;;;;;;;19.77;11.95;;;15.10;99.90;;;;;;4918624;28;37483;-79
2021/08/31 02:00:56;;;;;;;23.33;11.48;;;15.00;99.90;;;;;;4917421;28;38599;-78
2021/08/31 02:03:23;;;;;;;23.92;11.75;;;15.10;99.90;;;;;;4916609;28;39415;-78
2021/08/31 02:05:49;;;;;;;24.27;12.95;;;15.10;99.90;;;;;;4920626;28;37996;-79
2021/08/31 02:08:15;;;;;;;21.75;11.73;;;15.10;99.90;;;;;;4920367;28;38067;-78
2021/08/31 02:10:42;;;;;;;18.38;11.00;;;15.10;99.90;;;;;;4919264;28;40194;-78
2021/08/31 02:13:09;;;;;;;23.17;11.90;;;15.00;99.90;;;;;;4918591;28;39282;-78
2021/08/31 02:15:35;;;;;;;20.52;11.38;;;15.00;99.90;;;;;;4918208;28;39717;-79
2021/08/31 02:18:01;;;;;;;19.65;11.70;;;15.00;99.90;;;;;;4921352;28;37237;-78
2021/08/31 02:20:27;;;;;;;22.20;10.93;;;15.00;99.90;;;;;;4918417;28;48263;-78
2021/08/31 02:22:53;;;;;;;24.80;12.15;;;15.00;99.90;;;;;;4921866;28;40352;-79
2021/08/31 02:25:19;;;;;;;29.23;12.65;;;15.00;99.90;;;;;;4919152;28;39114;-79
2021/08/31 02:27:46;;;;;;;23.45;11.23;;;15.00;99.90;;;;;;4903250;29;38390;-79
2021/08/31 02:30:13;;;;;;;24.38;11.82;;;15.00;99.90;;;;;;4902794;28;37664;-79
2021/08/31 02:32:39;;;;;;;23.33;11.98;;;15.00;99.90;;;;;;4918756;28;37964;-79
2021/08/31 02:35:06;;;;;;;21.33;11.52;;;15.00;99.90;;;;;;4903752;29;37878;-77
2021/08/31 02:37:32;;;;;;;33.97;13.43;;;15.00;99.90;;;;;;4922699;28;38179;-79
2021/08/31 02:39:58;;;;;;;20.40;12.05;;;15.00;99.90;;;;;;4922512;28;39917;-79
2021/08/31 02:42:24;;;;;;;20.27;11.35;;;15.00;99.90;;;;;;4914825;28;38959;-79
2021/08/31 02:44:50;;;;;;;23.65;11.45;;;14.90;99.90;;;;;;4920305;28;39516;-78
2021/08/31 02:47:17;;;;;;;20.92;10.93;;;14.90;99.90;;;;;;4917673;28;37865;-79
2021/08/31 02:49:45;;;;;;;21.27;10.88;;;14.90;99.90;;;;;;4921077;28;40041;-79
2021/08/31 02:52:11;;;;;;;22.55;11.80;;;14.90;99.90;;;;;;4903841;28;39366;-79
2021/08/31 02:54:37;;;;;;;19.77;11.23;;;14.90;99.90;;;;;;4914189;28;40076;-79
2021/08/31 02:57:04;;;;;;;19.65;11.68;;;14.90;99.90;;;;;;4913167;28;38500;-79
2021/08/31 02:59:30;;;;;;;20.77;10.88;;;14.90;99.90;;;;;;4917325;28;39650;-79
2021/08/31 03:02:06;;;;;;;22.02;11.07;;;14.90;99.90;;;;;;4917871;28;39169;-79
2021/08/31 03:04:39;;;;;;;20.17;11.05;;;14.80;99.90;;;;;;4920450;28;49057;-79
2021/08/31 03:07:06;;;;;;;;;;;14.80;99.90;;;;;;4916222;28;37049;-78
2021/08/31 03:09:32;;;;;;;19.10;11.05;;;14.80;99.90;;;;;;4922317;28;39276;-79
2021/08/31 03:11:59;;;;;;;17.48;10.55;;;14.80;99.90;;;;;;4901031;28;38821;-79
2021/08/31 03:14:25;;;;;;;20.15;10.15;;;14.80;99.90;;;;;;4916046;28;39335;-79
2021/08/31 03:16:51;;;;;;;22.77;11.75;;;14.80;99.90;;;;;;4916661;28;38231;-79
2021/08/31 03:19:21;;;;;;;20.55;9.90;;;14.80;99.90;;;;;;4916924;28;39775;-79
2021/08/31 03:21:48;;;;;;;24.95;12.15;;;14.80;99.90;;;;;;4921161;28;40040;-79
2021/08/31 03:24:15;;;;;;;22.40;12.98;;;14.80;99.90;;;;;;4917654;28;38247;-78
2021/08/31 03:26:42;;;;;;;17.25;10.00;;;14.80;99.90;;;;;;4916372;28;36535;-79
2021/08/31 03:29:08;;;;;;;22.27;11.18;;;14.80;99.90;;;;;;4919534;28;40185;-79
2021/08/31 03:31:34;;;;;;;19.85;9.90;;;14.80;99.90;;;;;;4921148;28;39153;-79
2021/08/31 03:34:00;;;;;;;19.27;12.32;;;14.80;99.90;;;;;;4903340;28;38588;-79
2021/08/31 03:36:26;;;;;;;24.48;11.90;;;14.80;99.90;;;;;;4917448;28;38803;-78
2021/08/31 03:38:52;;;;;;;22.13;12.30;;;14.80;99.90;;;;;;4917489;28;41072;-78
2021/08/31 03:41:18;;;;;;;19.33;9.75;;;14.80;99.90;;;;;;4917199;28;39288;-78
2021/08/31 03:43:46;;;;;;;34.00;13.45;;;14.80;99.90;;;;;;4921045;28;37681;-79
2021/08/31 03:46:12;;;;;;;20.50;10.05;;;14.80;99.90;;;;;;4920807;28;37419;-78
2021/08/31 03:48:38;;;;;;;26.45;13.57;;;14.80;99.90;;;;;;4920957;29;38842;-78
2021/08/31 03:51:05;;;;;;;20.17;10.77;;;14.80;99.90;;;;;;4920040;29;38140;-79
2021/08/31 03:53:31;;;;;;;18.83;9.88;;;14.70;99.90;;;;;;4902423;29;38934;-79
2021/08/31 03:55:57;;;;;;;19.38;10.52;;;14.70;99.90;;;;;;4920444;28;37266;-78
2021/08/31 03:58:23;;;;;;;31.33;14.43;;;14.70;99.90;;;;;;4921513;29;38671;-79
2021/08/31 04:00:49;;;;;;;24.42;11.45;;;14.70;99.90;;;;;;4918737;28;39036;-79
2021/08/31 04:03:16;;;;;;;18.70;9.68;;;14.70;99.90;;;;;;4903063;29;40009;-78
2021/08/31 04:05:42;;;;;;;20.33;10.43;;;14.70;99.90;;;;;;4920380;28;35748;-78
2021/08/31 04:08:08;;;;;;;21.40;12.02;;;14.70;99.90;;;;;;4916107;28;39653;-78
2021/08/31 04:10:34;;;;;;;22.75;11.02;;;14.80;99.90;;;;;;4916282;28;38699;-78
2021/08/31 04:13:00;;;;;;;21.05;11.25;;;14.70;99.90;;;;;;4900410;28;37440;-78
2021/08/31 04:15:26;;;;;;;22.83;10.98;;;14.80;99.90;;;;;;4916735;28;38664;-77
2021/08/31 04:17:52;;;;;;;21.25;10.85;;;14.70;99.90;;;;;;4917770;28;38534;-78
2021/08/31 04:20:18;;;;;;;20.02;10.02;;;14.70;99.90;;;;;;4897556;28;39730;-77
2021/08/31 04:22:44;;;;;;;24.83;12.45;;;14.70;99.90;;;;;;4896512;28;38999;-77
2021/08/31 04:25:11;;;;;;;23.38;10.95;;;14.70;99.90;;;;;;4914329;28;36701;-78
2021/08/31 04:27:37;;;;;;;27.13;10.25;;;14.60;99.90;;;;;;4916484;28;36616;-77
2021/08/31 04:30:04;;;;;;;21.10;11.85;;;14.70;99.90;;;;;;4898188;28;38235;-77
2021/08/31 04:32:30;;;;;;;21.90;12.43;;;14.70;99.90;;;;;;4898374;28;38060;-80
2021/08/31 04:34:58;;;;;;;21.23;10.60;;;14.70;99.90;;;;;;4920380;28;37463;-80
2021/08/31 04:37:24;;;;;;;28.33;12.63;;;14.70;99.90;;;;;;4902838;29;39639;-79
2021/08/31 04:39:50;;;;;;;27.65;12.13;;;14.70;99.90;;;;;;4905724;29;39506;-80
2021/08/31 04:42:16;;;;;;;22.50;12.05;;;14.70;99.90;;;;;;4901733;29;38452;-80
2021/08/31 04:44:42;;;;;;;20.65;11.73;;;14.70;99.90;;;;;;4923004;29;37324;-79
2021/08/31 04:47:08;;;;;;;27.83;11.27;;;14.70;99.90;;;;;;4918342;28;38885;-79
2021/08/31 04:49:34;;;;;;;26.40;12.43;;;14.70;99.90;;;;;;4920193;28;38689;-77
2021/08/31 04:52:01;;;;;;;23.23;11.45;;;14.70;99.90;;;;;;4919707;28;38128;-78
2021/08/31 04:54:27;;;;;;;29.13;12.25;;;14.70;99.90;;;;;;4917518;28;38111;-79
2021/08/31 04:56:53;;;;;;;25.85;10.88;;;14.70;99.90;;;;;;4908505;29;41560;-80
2021/08/31 04:59:19;;;;;;;21.02;12.15;;;14.70;99.90;;;;;;4926023;28;38038;-78
2021/08/31 05:01:45;;;;;;;23.25;11.45;;;14.70;99.90;;;;;;4922404;28;38668;-78
2021/08/31 05:04:11;;;;;;;25.33;10.55;;;14.70;99.90;;;;;;4922973;28;37556;-79
2021/08/31 05:06:37;;;;;;;22.35;10.88;;;14.70;99.90;;;;;;4923491;28;37665;-79
2021/08/31 05:09:03;;;;;;;20.80;10.52;;;14.70;99.90;;;;;;4908111;28;38966;-79
2021/08/31 05:11:29;;;;;;;27.30;11.43;;;14.70;99.90;;;;;;4926674;28;38216;-79
2021/08/31 05:13:56;;;;;;;23.75;10.52;;;14.80;99.90;;;;;;4908317;28;36580;-79
2021/08/31 05:16:22;;;;;;;17.25;9.88;;;14.80;99.90;;;;;;4921889;28;39567;-79
2021/08/31 05:18:48;;;;;;;14.98;9.30;;;14.80;99.90;;;;;;4924504;28;39598;-78
2021/08/31 05:21:14;;;;;;;17.83;9.60;;;14.80;99.90;;;;;;4921577;28;37867;-78
2021/08/31 05:23:40;;;;;;;25.40;10.23;;;14.80;99.90;;;;;;4924295;28;37251;-79
2021/08/31 05:26:06;;;;;;;17.90;9.35;;;14.70;99.90;;;;;;4905009;28;39451;-78
2021/08/31 05:28:32;;;;;;;25.63;11.05;;;14.80;99.90;;;;;;4922203;28;38318;-78
2021/08/31 05:30:58;;;;;;;19.45;10.77;;;14.80;99.90;;;;;;4921816;28;38020;-78
2021/08/31 05:33:25;;;;;;;19.20;9.98;;;14.80;99.90;;;;;;4918490;28;37432;-78
2021/08/31 05:35:51;;;;;;;19.60;10.18;;;14.80;99.90;;;;;;4907961;28;39370;-78
2021/08/31 05:38:17;;;;;;;20.25;11.30;;;14.80;99.90;;;;;;4923174;28;38696;-78
2021/08/31 05:40:43;;;;;;;20.70;11.77;;;14.80;99.90;;;;;;4915687;29;37192;-78
2021/08/31 05:43:09;;;;;;;22.33;9.57;;;14.80;99.90;;;;;;4916063;28;38443;-78
2021/08/31 05:45:35;;;;;;;21.98;11.05;;;14.80;99.90;;;;;;4923364;28;38552;-78
2021/08/31 05:48:01;;;;;;;18.00;9.88;;;14.80;99.90;;;;;;4912331;28;39387;-77
2021/08/31 05:50:27;;;;;;;23.48;10.82;;;14.90;99.90;;;;;;4927547;28;38897;-78
2021/08/31 05:52:53;;;;;;;26.35;12.43;;;14.90;99.90;;;;;;4909966;28;39527;-79
2021/08/31 05:55:19;;;;;;;20.73;10.65;;;14.90;99.90;;;;;;4927129;28;38065;-79
2021/08/31 05:57:45;;;;;;;24.20;11.55;;;14.90;99.90;;;;;;4910219;28;39707;-78
2021/08/31 06:00:12;;;;;;;23.77;11.85;;;15.00;99.90;;;;;;4925413;28;37845;-78
2021/08/31 06:02:38;;;;;;;23.90;11.43;;;15.00;99.90;;;;;;4925772;28;38947;-78
2021/08/31 06:05:06;;;;;;;20.13;10.43;;;15.00;99.90;;;;;;4926826;28;38550;-78
2021/08/31 06:07:35;;;;;;;25.98;11.02;;;15.00;99.90;;;;;;4900266;28;47079;-78
2021/08/31 06:10:05;;;;;;;23.50;10.55;;;15.10;99.90;;;;;;4920962;28;38453;-78
2021/08/31 06:12:31;;;;;;;19.25;9.82;;;15.10;99.90;;;;;;4898634;28;47516;-79
2021/08/31 06:14:57;;;;;;;21.50;11.68;;;15.10;99.90;;;;;;4904739;28;39173;-79
2021/08/31 06:17:25;;;;;;;16.42;9.15;;;15.20;99.90;;;;;;4922468;28;38591;-78
2021/08/31 06:19:51;;;;;;;20.42;9.27;;;15.20;99.90;;;;;;4925064;28;38285;-79
2021/08/31 06:22:18;;;;;;;18.08;9.38;;;15.20;99.90;;;;;;4923686;28;36003;-78
2021/08/31 06:24:45;;;;;;;25.35;10.52;;;15.30;99.90;;;;;;4899346;29;37423;-77
2021/08/31 06:27:12;;;;;;;21.35;10.45;;;15.30;99.90;;;;;;4898605;28;38905;-78
2021/08/31 06:29:38;;;;;;;16.48;9.13;;;15.30;99.90;;;;;;4915854;28;38324;-78
2021/08/31 06:32:05;;;;;;;19.35;9.57;;;15.40;99.90;;;;;;4913764;28;36574;-78
2021/08/31 06:34:31;;;;;;;16.13;8.75;;;15.50;99.90;;;;;;4916467;28;38494;-77
2021/08/31 06:36:57;;;;;;;22.70;10.13;;;15.50;99.90;;;;;;4914957;28;37476;-78
2021/08/31 06:39:23;;;;;;;17.25;8.80;;;15.60;99.90;;;;;;4919107;28;38508;-78
2021/08/31 06:41:49;;;;;;;17.35;9.18;;;15.60;99.90;;;;;;4895598;28;37040;-78
2021/08/31 06:44:16;;;;;;;22.17;8.73;;;15.60;99.90;;;;;;4919029;29;38762;-77
2021/08/31 06:46:42;;;;;;;16.10;8.15;;;15.70;99.90;;;;;;4917195;28;39343;-78
2021/08/31 06:49:08;;;;;;;23.98;9.38;;;15.70;99.90;;;;;;4906705;28;38300;-76
2021/08/31 06:51:34;;;;;;;18.13;8.27;;;15.80;99.90;;;;;;4928964;28;37122;-78
2021/08/31 06:54:00;;;;;;;16.98;8.32;;;15.90;99.90;;;;;;4928204;29;39043;-78
2021/08/31 06:56:26;;;;;;;14.02;7.55;;;15.90;99.90;;;;;;4930757;28;47423;-77
2021/08/31 06:58:52;;;;;;;22.73;7.80;;;15.90;99.90;;;;;;4927364;29;38179;-78
2021/08/31 07:01:18;;;;;;;16.40;7.05;;;16.00;99.90;;;;;;4907660;28;35775;-77
2021/08/31 07:03:45;;;;;;;17.38;7.03;;;16.00;99.90;;;;;;4923843;29;39047;-77
2021/08/31 07:06:11;;;;;;;18.45;8.65;;;16.10;99.90;;;;;;4912698;28;37106;-77
2021/08/31 07:08:37;;;;;;;16.70;6.75;;;16.20;99.90;;;;;;4924811;28;37807;-76
2021/08/31 07:11:03;;;;;;;13.50;6.65;;;16.20;99.90;;;;;;4921895;28;37065;-77
2021/08/31 07:13:29;;;;;;;14.13;7.07;;;16.30;99.90;;;;;;4921182;28;37850;-77
2021/08/31 07:15:55;;;;;;;22.70;8.18;;;16.30;99.90;;;;;;4909970;29;37243;-77
2021/08/31 07:18:21;;;;;;;16.90;7.10;;;16.40;99.90;;;;;;4924901;28;38565;-77
2021/08/31 07:20:47;;;;;;;20.77;7.63;;;16.60;99.90;;;;;;4902463;29;37377;-76
2021/08/31 07:23:16;;;;;;;17.42;6.82;;;16.80;99.90;;;;;;4923876;28;40693;-77
2021/08/31 07:25:43;;;;;;;16.98;6.95;;;16.90;99.90;;;;;;4924278;28;38543;-77
2021/08/31 07:28:10;;;;;;;19.13;6.35;;;17.10;99.90;;;;;;4925760;28;37934;-77
2021/08/31 07:30:37;;;;;;;12.32;5.55;;;17.30;99.90;;;;;;4923570;28;36101;-77
2021/08/31 07:33:05;;;;;;;15.95;6.55;;;17.40;99.90;;;;;;4929169;28;38695;-79
2021/08/31 07:35:33;;;;;;;12.68;5.45;;;17.70;99.90;;;;;;4923081;29;38014;-78
2021/08/31 07:37:59;;;;;;;18.13;6.00;;;17.80;99.90;;;;;;4923772;28;39608;-77
2021/08/31 07:40:25;;;;;;;15.43;5.70;;;18.00;99.90;;;;;;4909305;28;37925;-78
2021/08/31 07:42:52;;;;;;;12.55;4.97;;;18.20;99.90;;;;;;4924950;28;39899;-78
2021/08/31 07:45:19;;;;;;;12.00;5.97;;;18.30;99.90;;;;;;4925994;28;39492;-78
2021/08/31 07:47:45;;;;;;;15.95;5.50;;;18.50;99.90;;;;;;4927770;28;38614;-78
2021/08/31 07:50:12;;;;;;;12.70;4.72;;;18.60;99.90;;;;;;4926966;29;37868;-77
2021/08/31 07:52:39;;;;;;;11.23;5.20;;;18.70;99.90;;;;;;4928504;29;39688;-78
2021/08/31 07:55:07;;;;;;;13.73;4.80;;;18.90;99.90;;;;;;4928825;29;38204;-77
2021/08/31 07:57:35;;;;;;;12.93;5.15;;;18.90;99.90;;;;;;4912639;28;46889;-78
2021/08/31 08:00:01;;;;;;;9.20;4.30;;;19.10;99.90;;;;;;4928328;29;36336;-78
2021/08/31 08:02:27;;;;;;;11.88;4.57;;;19.10;99.90;;;;;;4909149;29;39098;-78
2021/08/31 08:04:58;;;;;;;13.43;4.78;;;19.10;99.90;;;;;;4921555;29;39593;-77
2021/08/31 08:07:26;;;;;;;16.52;4.82;;;18.90;99.90;;;;;;4921200;29;38214;-77
2021/08/31 08:09:53;;;;;;;13.73;4.22;;;18.90;99.90;;;;;;4914558;29;36834;-76
2021/08/31 08:12:20;;;;;;;12.90;4.07;;;18.80;99.90;;;;;;4914048;29;38903;-77
2021/08/31 08:14:49;;;;;;;11.65;4.40;;;18.70;99.90;;;;;;4923901;28;38028;-77
2021/08/31 08:17:19;;;;;;;12.57;5.18;;;18.70;99.90;;;;;;4922215;29;37957;-76
2021/08/31 08:19:46;;;;;;;14.02;4.40;;;18.70;99.90;;;;;;4903266;28;37374;-77
2021/08/31 08:22:13;;;;;;;11.60;4.07;;;18.70;99.90;;;;;;4922945;28;39318;-76
2021/08/31 08:24:40;;;;;;;9.75;4.68;;;18.70;99.90;;;;;;4918753;28;37819;-77
2021/08/31 08:27:07;;;;;;;15.35;4.20;;;18.90;99.90;;;;;;4926426;29;38936;-76
2021/08/31 08:29:37;;;;;;;10.30;3.72;;;19.20;99.90;;;;;;4922761;28;36655;-76
2021/08/31 08:32:08;;;;;;;13.25;4.22;;;19.60;99.90;;;;;;4901311;29;39125;-77
2021/08/31 08:34:35;;;;;;;8.33;4.07;;;19.70;99.90;;;;;;4911294;29;37328;-77
2021/08/31 08:37:02;;;;;;;10.70;4.20;;;20.00;99.90;;;;;;4925326;28;37622;-76
2021/08/31 08:39:29;;;;;;;10.85;3.67;;;20.10;99.90;;;;;;4906147;29;47593;-77
2021/08/31 08:41:55;;;;;;;9.32;3.53;;;20.30;99.90;;;;;;4923745;29;39783;-77
2021/08/31 08:44:22;;;;;;;10.73;4.28;;;20.30;99.90;;;;;;4909897;29;38979;-77
2021/08/31 08:46:48;;;;;;;11.55;4.07;;;20.30;99.90;;;;;;4927578;28;38795;-76
2021/08/31 08:49:14;;;;;;;12.57;4.18;;;20.30;99.90;;;;;;4929726;28;37978;-77
2021/08/31 08:51:41;;;;;;;9.88;4.18;;;20.20;99.90;;;;;;4902915;29;39805;-78
2021/08/31 08:54:08;;;;;;;11.95;4.88;;;20.00;99.90;;;;;;4912660;29;37646;-78
2021/08/31 08:56:34;;;;;;;7.20;3.90;;;19.70;99.90;;;;;;4926661;29;38302;-77
2021/08/31 08:59:01;;;;;;;13.38;4.70;;;19.80;99.90;;;;;;4926144;28;38066;-78
2021/08/31 09:01:41;;;;;;;7.70;3.63;;;20.10;99.90;;;;;;4926633;29;49162;-78
2021/08/31 09:04:08;;;;;;;9.00;4.03;;;20.60;99.90;;;;;;4924526;28;39466;-78
2021/08/31 09:06:35;;;;;;;11.18;3.88;;;20.60;99.90;;;;;;4933112;28;39115;-78
2021/08/31 09:09:06;;;;;;;14.40;4.72;;;20.60;99.90;;;;;;4911971;29;35909;-78
2021/08/31 09:11:40;;;;;;;16.30;4.78;;;20.80;99.90;;;;;;4925876;28;49946;-78
2021/08/31 09:14:30;;;;;;;14.13;4.65;;;21.00;99.90;;;;;;4923569;28;38278;-78
2021/08/31 09:16:57;;;;;;;11.10;4.03;;;20.40;99.90;;;;;;4927619;28;39441;-78
2021/08/31 09:19:41;;;;;;;13.07;4.07;;;20.00;99.90;;;;;;4910643;28;37962;-78
2021/08/31 09:22:15;;;;;;;13.20;4.28;;;19.70;99.90;;;;;;4925305;28;38829;-78
2021/08/31 09:25:00;;;;;;;9.32;4.40;;;19.60;99.90;;;;;;4924305;28;37541;-78
2021/08/31 09:27:45;;;;;;;10.20;4.15;;;19.50;99.90;;;;;;4921070;28;39608;-78
2021/08/31 09:30:30;;;;;;;9.35;4.30;;;19.40;99.90;;;;;;4901760;29;39041;-78
2021/08/31 09:33:12;;;;;;;10.88;4.70;;;19.40;99.90;;;;;;4921601;29;39844;-78
2021/08/31 09:35:40;;;;;;;10.18;4.35;;;19.50;99.90;;;;;;4901995;29;47145;-78
2021/08/31 09:38:08;;;;;;;13.13;4.82;;;19.50;99.90;;;;;;4904293;29;38630;-78
2021/08/31 09:41:01;;;;;;;12.18;5.50;;;19.50;99.90;;;;;;4921336;28;39011;-78
2021/08/31 09:43:27;;;;;;;;;;;19.60;99.90;;;;;;4903421;29;47269;-77
2021/08/31 09:45:55;;;;;;;10.68;5.30;;;19.80;99.90;;;;;;4924295;28;40016;-78
2021/08/31 09:48:21;;;;;;;10.27;4.30;;;19.80;99.90;;;;;;4907523;29;40257;-78
2021/08/31 09:50:47;;;;;;;10.00;4.93;;;19.70;99.90;;;;;;4907598;29;37747;-78
2021/08/31 09:53:14;;;;;;;12.82;4.63;;;20.10;99.90;;;;;;4908732;29;38990;-78
2021/08/31 09:55:42;;;;;;;10.45;4.65;;;20.30;99.90;;;;;;4900341;29;39341;-78
2021/08/31 09:58:13;;;;;;;11.65;4.70;;;20.30;99.90;;;;;;4909027;28;38043;-78
2021/08/31 10:00:46;;;;;;;14.15;4.88;;;20.30;99.90;;;;;;4911922;28;36855;-78
2021/08/31 10:03:13;;;;;;;12.73;4.55;;;20.20;99.90;;;;;;4911875;29;39655;-77
2021/08/31 10:05:41;;;;;;;12.48;5.10;;;20.20;99.90;;;;;;4903948;29;38687;-78
2021/08/31 10:08:08;;;;;;;10.07;4.30;;;20.20;99.90;;;;;;4910876;29;38130;-78
2021/08/31 10:10:37;;;;;;;9.60;4.45;;;20.20;99.90;;;;;;4911026;28;37223;-78
2021/08/31 10:13:11;;;;;;;13.82;5.18;;;20.20;99.90;;;;;;4917487;29;39342;-77
2021/08/31 10:15:45;;;;;;;7.13;4.25;;;20.40;99.90;;;;;;4922998;28;38775;-78
2021/08/31 10:18:16;;;;;;;11.45;4.55;;;20.40;99.90;;;;;;4908060;29;38964;-78
2021/08/31 10:20:52;;;;;;;7.82;4.20;;;20.30;99.90;;;;;;4925929;28;38217;-78
2021/08/31 10:23:32;;;;;;;8.82;4.30;;;20.30;99.90;;;;;;4911470;29;39114;-78
2021/08/31 10:26:22;;;;;;;7.68;4.65;;;20.40;99.90;;;;;;4922839;28;38616;-78
2021/08/31 10:28:50;;;;;;;10.82;4.30;;;20.40;99.90;;;;;;4912152;29;49077;-78
2021/08/31 10:31:32;;;;;;;13.68;4.70;;;20.30;99.90;;;;;;4923096;28;36843;-76
2021/08/31 10:33:58;;;;;;;8.85;4.32;;;20.40;99.90;;;;;;4925714;29;37671;-78
2021/08/31 10:36:37;;;;;;;10.55;4.28;;;20.30;99.90;;;;;;4922352;28;39195;-79
2021/08/31 10:39:07;;;;;;;11.63;4.63;;;20.80;99.90;;;;;;4913220;29;38225;-78
2021/08/31 10:41:42;;;;;;;8.98;4.20;;;21.50;99.90;;;;;;4926775;28;37306;-78
2021/08/31 10:44:15;;;;;;;9.45;4.35;;;22.20;99.90;;;;;;4928817;29;38962;-79
2021/08/31 10:46:56;;;;;;;13.23;4.32;;;22.50;99.90;;;;;;4920257;28;39795;-78
2021/08/31 10:49:23;;;;;;;9.80;4.50;;;21.80;99.90;;;;;;4912817;29;38551;-78
2021/08/31 10:52:02;;;;;;;10.05;4.40;;;21.60;99.90;;;;;;4902305;29;37239;-78
2021/08/31 10:54:46;;;;;;;12.15;4.85;;;21.40;99.90;;;;;;4920814;28;48211;-78
2021/08/31 10:57:34;;;;;;;11.73;4.70;;;21.40;99.90;;;;;;4919605;28;38614;-79
2021/08/31 11:00:16;;;;;;;12.15;4.40;;;21.30;99.90;;;;;;4923995;29;38788;-78
2021/08/31 11:02:48;;;;;;;7.63;3.85;;;21.40;99.90;;;;;;4924153;29;48529;-78
2021/08/31 11:05:25;;;;;;;10.00;4.13;;;21.50;99.90;;;;;;4918253;28;39487;-79
2021/08/31 11:07:59;;;;;;;10.20;4.38;;;21.50;99.90;;;;;;4920013;28;37680;-78
2021/08/31 11:10:32;;;;;;;14.88;5.30;;;21.50;99.90;;;;;;4924835;28;39583;-78
2021/08/31 11:13:11;;;;;;;10.30;4.32;;;21.50;99.90;;;;;;4923704;29;37714;-78
2021/08/31 11:15:37;;;;;;;13.68;5.43;;;21.90;99.90;;;;;;4918829;28;47413;-77
2021/08/31 11:18:13;;;;;;;13.45;4.82;;;22.10;99.90;;;;;;4925480;29;38449;-78
2021/08/31 11:20:41;;;;;;;10.18;4.40;;;22.00;99.90;;;;;;4923929;28;37795;-78
2021/08/31 11:23:11;;;;;;;9.45;4.75;;;22.10;99.90;;;;;;4926040;28;37666;-78
2021/08/31 11:25:42;;;;;;;10.02;4.40;;;22.20;99.90;;;;;;4912409;28;38800;-78
2021/08/31 11:28:21;;;;;;;13.95;4.95;;;22.30;99.90;;;;;;4917296;29;38784;-78
2021/08/31 11:30:57;;;;;;;10.88;5.07;;;22.50;99.90;;;;;;4911037;29;47584;-79
2021/08/31 11:33:31;;;;;;;9.10;4.47;;;22.30;99.90;;;;;;4927882;29;37333;-79
2021/08/31 11:36:08;;;;;;;14.07;4.82;;;22.10;99.90;;;;;;4925311;29;39819;-78
2021/08/31 11:38:40;;;;;;;12.27;4.43;;;22.20;99.90;;;;;;4908166;29;47069;-78
2021/08/31 11:41:20;;;;;;;10.48;4.30;;;22.30;99.90;;;;;;4923404;29;38374;-78
2021/08/31 11:44:18;;;;;;;8.65;4.65;;;22.40;99.90;;;;;;4923902;29;38245;-77
2021/08/31 11:46:50;;;;;;;9.48;4.18;;;22.00;99.90;;;;;;4907586;28;48510;-78
2021/08/31 11:49:25;;;;;;;14.93;4.50;;;21.80;99.90;;;;;;4925575;29;37691;-77
2021/08/31 11:52:00;;;;;;;12.07;4.60;;;22.20;99.90;;;;;;4921036;28;38600;-77
2021/08/31 11:54:32;;;;;;;10.40;5.35;;;22.80;99.90;;;;;;4924249;28;36283;-77
2021/08/31 11:57:04;;;;;;;11.57;4.93;;;22.70;99.90;;;;;;4922780;28;40087;-77
2021/08/31 11:59:50;;;;;;;6.70;4.07;;;22.70;99.90;;;;;;4926881;29;48738;-80
2021/08/31 12:02:22;;;;;;;10.57;4.60;;;22.90;99.90;;;;;;4925200;28;38128;-80
2021/08/31 12:04:54;;;;;;;9.70;5.28;;;23.20;99.90;;;;;;4926883;29;38094;-80
2021/08/31 12:07:24;;;;;;;11.05;4.32;;;23.30;99.90;;;;;;4926860;28;39877;-80
2021/08/31 12:09:54;;;;;;;11.75;4.40;;;22.90;99.90;;;;;;4927357;29;38797;-79
2021/08/31 12:12:21;;;;;;;11.05;4.70;;;23.10;99.90;;;;;;4923723;28;36810;-79
2021/08/31 12:14:48;;;;;;;16.20;4.43;;;23.20;99.90;;;;;;4916383;29;37179;-79
2021/08/31 12:17:31;;;;;;;10.00;4.70;;;23.50;99.90;;;;;;4927706;28;38904;-79
2021/08/31 12:20:12;;;;;;;9.98;4.10;;;23.50;99.90;;;;;;4923879;29;37957;-80
2021/08/31 12:22:40;;;;;;;8.02;3.97;;;23.70;99.90;;;;;;4924817;28;47878;-79
2021/08/31 12:25:07;;;;;;;14.23;5.10;;;23.90;99.90;;;;;;4921776;28;37577;-80
2021/08/31 12:27:42;;;;;;;10.82;4.45;;;23.90;99.90;;;;;;4927662;28;39166;-80
2021/08/31 12:30:10;;;;;;;12.43;4.18;;;23.50;99.90;;;;;;4906509;29;39531;-79
2021/08/31 12:32:38;;;;;;;8.57;4.13;;;22.90;99.90;;;;;;4907037;29;38233;-80
2021/08/31 12:35:26;;;;;;;7.20;3.60;;;22.40;99.90;;;;;;4907991;29;37582;-80
2021/08/31 12:38:25;;;;;;;7.82;4.40;;;22.50;99.90;;;;;;4905357;29;48692;-76
2021/08/31 12:40:55;;;;;;;8.85;4.35;;;23.00;99.90;;;;;;4903905;29;46949;-79